createdAt,value
2023-09-21T00:02:12.416Z,14.70
2023-09-21T00:04:58.036Z,14.80
2023-09-21T00:07:44.388Z,14.80
2023-09-21T00:10:30.432Z,14.80
2023-09-21T00:13:16.276Z,14.80
2023-09-21T00:16:03.205Z,14.80
2023-09-21T00:18:49.726Z,14.80
2023-09-21T00:21:35.629Z,14.80
2023-09-21T00:24:20.997Z,14.80
2023-09-21T00:27:06.620Z,14.80
2023-09-21T00:29:52.446Z,14.80
2023-09-21T00:32:39.462Z,14.80
2023-09-21T00:35:25.202Z,14.70
2023-09-21T00:38:11.847Z,14.70
2023-09-21T00:41:01.981Z,14.70
2023-09-21T00:43:48.345Z,14.70
2023-09-21T00:46:34.987Z,14.60
2023-09-21T00:49:20.664Z,14.60
2023-09-21T00:52:06.326Z,14.60
2023-09-21T00:54:51.797Z,14.60
2023-09-21T00:57:37.407Z,14.60
2023-09-21T01:00:24.615Z,14.60
2023-09-21T01:03:10.723Z,14.50
2023-09-21T01:05:59.445Z,14.50
2023-09-21T01:08:45.238Z,14.50
2023-09-21T01:11:31.710Z,14.50
2023-09-21T01:14:17.717Z,14.50
2023-09-21T01:17:03.281Z,14.50
2023-09-21T01:19:48.809Z,14.50
2023-09-21T01:22:34.319Z,14.50
2023-09-21T01:25:19.910Z,14.50
2023-09-21T01:28:06.514Z,14.50
2023-09-21T01:30:52.230Z,14.50
2023-09-21T01:33:38.063Z,14.50
2023-09-21T01:36:24.407Z,14.50
2023-09-21T01:39:10.088Z,14.50
2023-09-21T01:41:56.116Z,14.50
2023-09-21T01:44:42.099Z,14.50
2023-09-21T01:47:27.581Z,14.40
2023-09-21T01:50:13.279Z,14.50
2023-09-21T01:52:58.933Z,14.50
2023-09-21T01:55:46.009Z,14.40
2023-09-21T01:58:31.775Z,14.40
2023-09-21T02:01:17.667Z,14.30
2023-09-21T02:04:03.737Z,14.30
2023-09-21T02:06:49.738Z,14.30
2023-09-21T02:09:35.229Z,14.20
2023-09-21T02:12:21.384Z,14.20
2023-09-21T02:15:07.898Z,14.10
2023-09-21T02:17:57.497Z,14.20
2023-09-21T02:20:43.447Z,14.20
2023-09-21T02:23:29.354Z,14.20
2023-09-21T02:26:14.723Z,14.20
2023-09-21T02:29:00.312Z,14.10
2023-09-21T02:31:45.934Z,14.10
2023-09-21T02:34:31.666Z,14.10
2023-09-21T02:37:17.282Z,14.10
2023-09-21T02:40:02.923Z,14.00
2023-09-21T02:42:56.514Z,14.00
2023-09-21T02:45:42.593Z,13.90
2023-09-21T02:48:28.266Z,13.90
2023-09-21T02:51:14.569Z,13.90
2023-09-21T02:54:00.488Z,13.90
2023-09-21T02:56:45.974Z,13.80
2023-09-21T02:59:31.369Z,13.70
2023-09-21T03:02:16.942Z,13.70
2023-09-21T03:05:02.375Z,13.70
2023-09-21T03:07:48.548Z,13.60
2023-09-21T03:10:34.289Z,13.60
2023-09-21T03:13:21.591Z,13.60
2023-09-21T03:16:08.707Z,13.60
2023-09-21T03:18:54.358Z,13.60
2023-09-21T03:21:40.341Z,13.60
2023-09-21T03:24:25.953Z,13.60
2023-09-21T03:27:11.491Z,13.60
2023-09-21T03:29:59.544Z,13.50
2023-09-21T03:32:45.060Z,13.50
2023-09-21T03:35:30.434Z,13.50
2023-09-21T03:38:16.359Z,13.50
2023-09-21T03:41:02.013Z,13.40
2023-09-21T03:43:48.251Z,13.40
2023-09-21T03:46:34.068Z,13.40
2023-09-21T03:49:19.460Z,13.40
2023-09-21T03:52:05.605Z,13.40
2023-09-21T03:54:51.352Z,13.40
2023-09-21T03:57:38.460Z,13.30
2023-09-21T04:00:25.107Z,13.40
2023-09-21T04:03:12.720Z,13.40
2023-09-21T04:06:02.927Z,13.40
2023-09-21T04:08:48.832Z,13.40
2023-09-21T04:11:41.019Z,13.40
2023-09-21T04:14:27.425Z,13.30
2023-09-21T04:17:12.946Z,13.40
2023-09-21T04:19:58.604Z,13.30
2023-09-21T04:22:44.726Z,13.30
2023-09-21T04:25:30.345Z,13.30
2023-09-21T04:28:15.997Z,13.30
2023-09-21T04:31:02.663Z,13.30
2023-09-21T04:33:48.626Z,13.40
2023-09-21T04:36:34.656Z,13.30
2023-09-21T04:39:20.391Z,13.30
2023-09-21T04:42:06.312Z,13.30
2023-09-21T04:44:52.395Z,13.30
2023-09-21T04:47:40.381Z,13.30
2023-09-21T04:50:26.415Z,13.30
2023-09-21T04:53:15.963Z,13.30
2023-09-21T04:56:09.300Z,13.30
2023-09-21T04:58:55.352Z,13.30
2023-09-21T05:01:41.410Z,13.40
2023-09-21T05:04:27.599Z,13.40
2023-09-21T05:07:14.068Z,13.40
2023-09-21T05:09:59.743Z,13.40
2023-09-21T05:12:45.451Z,13.50
2023-09-21T05:15:31.279Z,13.60
2023-09-21T05:18:17.369Z,13.60
2023-09-21T05:21:03.381Z,13.70
2023-09-21T05:23:48.834Z,13.70
2023-09-21T05:26:34.716Z,13.70
2023-09-21T05:29:22.138Z,13.80
2023-09-21T05:32:07.874Z,13.90
2023-09-21T05:34:53.888Z,14.00
2023-09-21T05:37:39.463Z,14.00
2023-09-21T05:40:25.380Z,14.10
2023-09-21T05:43:11.073Z,14.20
2023-09-21T05:45:57.626Z,14.30
2023-09-21T05:48:43.475Z,14.40
2023-09-21T05:51:29.152Z,14.50
2023-09-21T05:54:14.593Z,14.60
2023-09-21T05:57:02.683Z,14.70
2023-09-21T05:59:48.501Z,14.90
2023-09-21T06:02:34.654Z,15.00
2023-09-21T06:05:20.369Z,15.20
2023-09-21T06:08:06.205Z,15.30
2023-09-21T06:10:52.094Z,15.50
2023-09-21T06:13:37.828Z,15.60
2023-09-21T06:16:23.924Z,15.80
2023-09-21T06:19:15.692Z,15.90
2023-09-21T06:22:02.797Z,16.10
2023-09-21T06:24:48.311Z,16.30
2023-09-21T06:27:34.787Z,16.40
2023-09-21T06:30:20.984Z,16.50
2023-09-21T06:33:06.892Z,16.70
2023-09-21T06:35:53.269Z,16.80
2023-09-21T06:38:38.968Z,17.00
2023-09-21T06:41:28.363Z,17.10
2023-09-21T06:44:14.782Z,17.30
2023-09-21T06:47:00.938Z,17.40
2023-09-21T06:49:46.790Z,17.50
2023-09-21T06:52:32.297Z,17.50
2023-09-21T06:55:17.959Z,17.60
2023-09-21T06:58:04.299Z,17.60
2023-09-21T07:00:50.094Z,17.70
2023-09-21T07:03:35.554Z,17.70
2023-09-21T07:06:21.734Z,17.80
2023-09-21T07:09:07.719Z,17.80
2023-09-21T07:11:53.594Z,17.90
2023-09-21T07:14:40.002Z,17.90
2023-09-21T07:17:25.831Z,17.90
2023-09-21T07:20:12.829Z,18.00
2023-09-21T07:22:58.781Z,18.10
2023-09-21T07:25:44.567Z,18.20
2023-09-21T07:28:33.187Z,18.40
2023-09-21T07:31:18.877Z,18.50
2023-09-21T07:34:08.278Z,18.80
2023-09-21T07:36:54.055Z,19.00
2023-09-21T07:39:39.559Z,19.20
2023-09-21T07:42:26.023Z,19.20
2023-09-21T07:45:12.539Z,19.30
2023-09-21T07:47:58.942Z,19.40
2023-09-21T07:50:45.504Z,19.50
2023-09-21T07:53:31.230Z,19.50
2023-09-21T07:56:16.695Z,19.60
2023-09-21T07:59:02.099Z,19.70
2023-09-21T08:01:47.687Z,19.70
2023-09-21T08:04:33.427Z,19.80
2023-09-21T08:07:19.440Z,20.00
2023-09-21T08:10:06.936Z,20.10
2023-09-21T08:12:52.493Z,20.10
2023-09-21T08:15:38.241Z,20.20
2023-09-21T08:18:25.837Z,20.20
2023-09-21T08:21:12.072Z,20.30
2023-09-21T08:23:57.863Z,20.50
2023-09-21T08:26:43.338Z,20.70
2023-09-21T08:29:29.112Z,20.90
2023-09-21T08:32:15.123Z,21.10
2023-09-21T08:35:01.636Z,21.20
2023-09-21T08:37:47.376Z,21.40
2023-09-21T08:40:35.443Z,21.60
2023-09-21T08:43:24.899Z,21.70
2023-09-21T08:46:11.174Z,21.80
2023-09-21T08:49:01.818Z,22.10
2023-09-21T08:51:48.623Z,22.30
2023-09-21T08:54:37.082Z,22.40
2023-09-21T08:57:23.669Z,22.40
2023-09-21T09:00:10.492Z,22.60
2023-09-21T09:02:56.687Z,22.70
2023-09-21T09:05:43.220Z,22.70
2023-09-21T09:08:30.025Z,22.90
2023-09-21T09:11:40.212Z,23.10
2023-09-21T09:14:26.460Z,23.20
2023-09-21T09:17:14.820Z,23.30
2023-09-21T09:20:01.059Z,23.40
2023-09-21T09:22:50.959Z,23.50
2023-09-21T09:25:37.978Z,23.70
2023-09-21T09:28:24.092Z,23.80
2023-09-21T09:31:12.565Z,24.00
2023-09-21T09:33:58.437Z,24.20
2023-09-21T09:36:48.330Z,24.50
2023-09-21T09:39:34.226Z,24.80
2023-09-21T09:42:20.766Z,24.90
2023-09-21T09:45:18.423Z,25.10
2023-09-21T09:48:13.147Z,25.20
2023-09-21T09:51:07.598Z,25.30
2023-09-21T09:53:55.166Z,25.80
2023-09-21T09:56:42.085Z,26.70
2023-09-21T09:59:28.701Z,27.80
2023-09-21T10:02:16.617Z,29.30
2023-09-21T10:05:03.076Z,28.80
2023-09-21T10:07:51.545Z,28.00
2023-09-21T10:10:51.128Z,27.30
2023-09-21T10:13:50.752Z,26.70
2023-09-21T10:16:37.022Z,26.50
2023-09-21T10:19:34.726Z,26.90
2023-09-21T10:22:32.890Z,28.30
2023-09-21T10:25:39.451Z,28.90
2023-09-21T10:28:33.947Z,28.40
2023-09-21T10:31:27.360Z,28.10
2023-09-21T10:34:19.895Z,28.60
2023-09-21T10:37:07.131Z,28.60
2023-09-21T10:40:01.006Z,28.10
2023-09-21T10:42:46.914Z,27.60
2023-09-21T10:46:01.406Z,27.10
2023-09-21T10:48:48.684Z,26.90
2023-09-21T10:51:36.684Z,26.90
2023-09-21T10:54:22.802Z,27.10
2023-09-21T10:57:08.236Z,27.10
2023-09-21T11:00:06.020Z,26.90
2023-09-21T11:02:57.891Z,26.60
2023-09-21T11:05:44.887Z,26.40
2023-09-21T11:08:30.609Z,26.10
2023-09-21T11:11:18.084Z,26.00
2023-09-21T11:14:03.811Z,26.00
2023-09-21T11:16:49.655Z,26.10
2023-09-21T11:19:35.524Z,26.00
2023-09-21T11:22:21.324Z,25.90
2023-09-21T11:25:09.732Z,26.00
2023-09-21T11:27:59.296Z,26.00
2023-09-21T11:30:46.543Z,26.00
2023-09-21T11:33:58.650Z,26.00
2023-09-21T11:36:44.776Z,25.90
2023-09-21T11:39:30.831Z,25.80
2023-09-21T11:42:20.735Z,25.70
2023-09-21T11:45:07.617Z,25.60
2023-09-21T11:48:00.695Z,25.40
2023-09-21T11:50:46.712Z,25.20
2023-09-21T11:53:32.326Z,25.00
2023-09-21T11:56:17.967Z,24.90
2023-09-21T11:59:08.110Z,24.70
2023-09-21T12:01:54.087Z,24.70
2023-09-21T12:04:41.900Z,24.60
2023-09-21T12:07:27.513Z,24.60
2023-09-21T12:10:13.077Z,24.70
2023-09-21T12:12:58.844Z,24.90
2023-09-21T12:15:44.961Z,25.10
2023-09-21T12:18:31.930Z,25.20
2023-09-21T12:21:17.798Z,25.30
2023-09-21T12:24:03.637Z,25.30
2023-09-21T12:26:49.499Z,25.30
2023-09-21T12:29:35.633Z,25.30
2023-09-21T12:32:21.668Z,25.20
2023-09-21T12:35:14.605Z,25.20
2023-09-21T12:38:00.292Z,25.20
2023-09-21T12:40:45.736Z,25.10
2023-09-21T12:43:31.282Z,25.00
2023-09-21T12:46:16.782Z,25.00
2023-09-21T12:49:02.411Z,24.90
2023-09-21T12:51:48.954Z,24.90
2023-09-21T12:54:34.879Z,24.90
2023-09-21T12:57:20.993Z,24.90
2023-09-21T13:00:12.386Z,25.00
2023-09-21T13:02:58.091Z,24.90
2023-09-21T13:05:44.664Z,24.90
2023-09-21T13:08:30.670Z,24.90
2023-09-21T13:11:16.355Z,24.80
2023-09-21T13:14:02.146Z,24.80
2023-09-21T13:16:48.075Z,24.90
2023-09-21T13:19:33.602Z,24.90
2023-09-21T13:22:19.874Z,24.80
2023-09-21T13:25:06.167Z,24.80
2023-09-21T13:27:51.618Z,24.80
2023-09-21T13:30:37.374Z,24.80
2023-09-21T13:33:24.975Z,24.90
2023-09-21T13:36:10.611Z,24.80
2023-09-21T13:38:56.447Z,24.80
2023-09-21T13:41:43.672Z,24.90
2023-09-21T13:44:31.743Z,24.90
2023-09-21T13:47:17.608Z,24.90
2023-09-21T13:50:03.689Z,24.80
2023-09-21T13:52:49.246Z,24.70
2023-09-21T13:55:34.732Z,24.60
2023-09-21T13:58:20.467Z,24.50
2023-09-21T14:01:06.225Z,24.50
2023-09-21T14:03:52.536Z,24.30
2023-09-21T14:06:38.550Z,24.20
2023-09-21T14:09:27.655Z,24.20
2023-09-21T14:12:13.550Z,24.10
2023-09-21T14:14:59.714Z,24.00
2023-09-21T14:17:45.563Z,24.00
2023-09-21T14:20:31.683Z,23.90
2023-09-21T14:23:17.600Z,23.80
2023-09-21T14:26:04.355Z,23.80
2023-09-21T14:28:50.108Z,23.70
2023-09-21T14:31:35.838Z,23.60
2023-09-21T14:34:21.792Z,23.50
2023-09-21T14:37:07.194Z,23.50
2023-09-21T14:39:54.403Z,23.40
2023-09-21T14:42:40.281Z,23.40
2023-09-21T14:45:26.037Z,23.40
2023-09-21T14:48:12.236Z,23.30
2023-09-21T14:50:57.904Z,23.20
2023-09-21T14:53:49.625Z,23.20
2023-09-21T14:56:35.294Z,23.10
2023-09-21T14:59:20.824Z,23.10
2023-09-21T15:02:10.977Z,23.00
2023-09-21T15:04:57.032Z,23.00
2023-09-21T15:07:43.538Z,22.90
2023-09-21T15:10:29.770Z,22.90
2023-09-21T15:13:16.609Z,22.80
2023-09-21T15:16:02.554Z,22.70
2023-09-21T15:18:48.289Z,22.70
2023-09-21T15:21:34.005Z,22.60
2023-09-21T15:24:20.770Z,22.60
2023-09-21T15:27:06.571Z,22.60
2023-09-21T15:29:58.483Z,22.50
2023-09-21T15:32:44.200Z,22.50
2023-09-21T15:35:30.541Z,22.40
2023-09-21T15:38:16.435Z,22.40
2023-09-21T15:41:04.509Z,22.30
2023-09-21T15:43:51.181Z,22.20
2023-09-21T15:46:37.549Z,22.10
2023-09-21T15:49:22.966Z,22.00
2023-09-21T15:52:08.465Z,21.90
2023-09-21T15:54:54.166Z,21.80
2023-09-21T15:57:40.414Z,21.70
2023-09-21T16:00:26.682Z,21.70
2023-09-21T16:03:12.575Z,21.50
2023-09-21T16:06:01.790Z,21.50
2023-09-21T16:08:48.137Z,21.40
2023-09-21T16:11:35.800Z,21.30
2023-09-21T16:14:21.238Z,21.20
2023-09-21T16:17:06.652Z,21.00
2023-09-21T16:19:52.150Z,21.00
2023-09-21T16:22:38.618Z,20.90
2023-09-21T16:25:25.616Z,20.80
2023-09-21T16:28:11.492Z,20.60
2023-09-21T16:31:00.333Z,20.60
2023-09-21T16:33:46.174Z,20.40
2023-09-21T16:36:32.796Z,20.30
2023-09-21T16:39:18.698Z,20.20
2023-09-21T16:42:04.348Z,20.20
2023-09-21T16:44:52.761Z,20.10
2023-09-21T16:47:38.509Z,20.00
2023-09-21T16:50:24.497Z,20.00
2023-09-21T16:53:10.506Z,19.90
2023-09-21T16:55:56.838Z,19.80
2023-09-21T16:58:42.760Z,19.80
2023-09-21T17:01:28.530Z,19.70
2023-09-21T17:04:14.797Z,19.60
2023-09-21T17:07:00.610Z,19.60
2023-09-21T17:09:46.195Z,19.50
2023-09-21T17:12:32.672Z,19.40
2023-09-21T17:16:39.627Z,19.40
2023-09-21T17:19:25.327Z,19.30
2023-09-21T17:22:14.024Z,19.20
2023-09-21T17:24:59.675Z,19.10
2023-09-21T17:27:45.377Z,19.00
2023-09-21T17:30:31.313Z,18.90
2023-09-21T17:33:17.163Z,18.90
2023-09-21T17:36:03.263Z,18.80
2023-09-21T17:38:49.653Z,18.80
2023-09-21T17:41:35.395Z,18.70
2023-09-21T17:44:21.203Z,18.70
2023-09-21T17:47:07.064Z,18.60
2023-09-21T17:49:53.158Z,18.50
2023-09-21T17:52:39.236Z,18.50
2023-09-21T17:55:27.820Z,18.40
2023-09-21T17:58:13.616Z,18.40
2023-09-21T18:00:59.686Z,18.40
2023-09-21T18:03:45.949Z,18.30
2023-09-21T18:06:32.000Z,18.30
2023-09-21T18:09:18.060Z,18.20
2023-09-21T18:12:04.590Z,18.20
2023-09-21T18:14:50.501Z,18.10
2023-09-21T18:17:38.007Z,18.10
2023-09-21T18:20:26.572Z,18.10
2023-09-21T18:23:12.207Z,18.00
2023-09-21T18:25:58.368Z,18.00
2023-09-21T18:28:44.176Z,18.00
2023-09-21T18:31:30.212Z,17.90
2023-09-21T18:34:18.005Z,17.80
2023-09-21T18:37:03.794Z,17.80
2023-09-21T18:39:49.786Z,17.80
2023-09-21T18:42:36.174Z,17.70
2023-09-21T18:45:22.349Z,17.60
2023-09-21T18:48:08.632Z,17.60
2023-09-21T18:50:54.772Z,17.60
2023-09-21T18:53:41.520Z,17.50
2023-09-21T18:56:27.453Z,17.50
2023-09-21T18:59:13.138Z,17.40
2023-09-21T19:01:58.970Z,17.40
2023-09-21T19:04:49.227Z,17.40
2023-09-21T19:07:35.945Z,17.30
2023-09-21T19:10:22.879Z,17.30
2023-09-21T19:13:09.042Z,17.20
2023-09-21T19:15:54.717Z,17.20
2023-09-21T19:18:41.214Z,17.20
2023-09-21T19:21:27.517Z,17.10
2023-09-21T19:24:13.181Z,17.10
2023-09-21T19:26:58.838Z,17.00
2023-09-21T19:29:44.479Z,17.00
2023-09-21T19:32:30.891Z,16.90
2023-09-21T19:35:16.636Z,16.90
2023-09-21T19:38:05.458Z,16.80
2023-09-21T19:40:51.730Z,16.80
2023-09-21T19:43:37.555Z,16.80
2023-09-21T19:46:23.817Z,16.80
2023-09-21T19:49:09.553Z,16.80
2023-09-21T19:51:56.272Z,16.70
2023-09-21T19:54:41.855Z,16.60
2023-09-21T19:57:27.645Z,16.60
2023-09-21T20:00:13.773Z,16.60
2023-09-21T20:02:59.922Z,16.60
2023-09-21T20:05:46.448Z,16.50
2023-09-21T20:08:32.277Z,16.50
2023-09-21T20:11:17.797Z,16.50
2023-09-21T20:14:03.410Z,16.60
2023-09-21T20:16:49.050Z,16.50
2023-09-21T20:19:34.587Z,16.50
2023-09-21T20:22:20.201Z,16.50
2023-09-21T20:25:06.089Z,16.50
2023-09-21T20:27:52.053Z,16.40
2023-09-21T20:30:38.168Z,16.40
2023-09-21T20:33:24.551Z,16.40
2023-09-21T20:36:12.780Z,16.40
2023-09-21T20:38:58.647Z,16.30
2023-09-21T20:41:44.622Z,16.30
2023-09-21T20:44:30.441Z,16.30
2023-09-21T20:47:15.963Z,16.30
2023-09-21T20:50:04.697Z,16.30
2023-09-21T20:52:50.539Z,16.20
2023-09-21T20:55:36.355Z,16.20
2023-09-21T20:58:22.691Z,16.20
2023-09-21T21:01:08.417Z,16.10
2023-09-21T21:03:54.320Z,16.10
2023-09-21T21:06:40.419Z,16.10
2023-09-21T21:09:26.854Z,16.00
2023-09-21T21:12:12.815Z,16.00
2023-09-21T21:15:00.261Z,16.00
2023-09-21T21:17:47.556Z,16.00
2023-09-21T21:20:34.343Z,15.90
2023-09-21T21:23:19.906Z,15.90
2023-09-21T21:26:05.731Z,15.90
2023-09-21T21:28:51.723Z,15.80
2023-09-21T21:31:37.502Z,15.80
2023-09-21T21:34:23.189Z,15.80
2023-09-21T21:37:08.884Z,15.80
2023-09-21T21:39:54.541Z,15.80
2023-09-21T21:42:43.396Z,15.70
2023-09-21T21:45:29.597Z,15.70
2023-09-21T21:48:20.551Z,15.70
2023-09-21T21:51:06.305Z,15.70
2023-09-21T21:53:52.067Z,15.60
2023-09-21T21:56:38.172Z,15.60
2023-09-21T21:59:24.019Z,15.60
2023-09-21T22:02:09.841Z,15.60
2023-09-21T22:04:55.738Z,15.60
2023-09-21T22:07:41.442Z,15.60
2023-09-21T22:10:27.721Z,15.60
2023-09-21T22:13:13.605Z,15.60
2023-09-21T22:16:02.709Z,15.60
2023-09-21T22:18:52.807Z,15.60
2023-09-21T22:21:39.084Z,15.50
2023-09-21T22:24:24.857Z,15.50
2023-09-21T22:27:10.481Z,15.50
2023-09-21T22:29:56.260Z,15.50
2023-09-21T22:32:44.669Z,15.50
2023-09-21T22:35:30.231Z,15.50
2023-09-21T22:38:15.839Z,15.60
2023-09-21T22:41:01.705Z,15.50
2023-09-21T22:43:50.468Z,15.60
2023-09-21T22:46:36.494Z,15.60
2023-09-21T22:49:25.893Z,15.60
2023-09-21T22:52:11.618Z,15.60
2023-09-21T22:55:00.177Z,15.50
2023-09-21T22:57:48.740Z,15.60
2023-09-21T23:00:34.542Z,15.60
2023-09-21T23:03:20.389Z,15.60
2023-09-21T23:06:12.526Z,15.60
2023-09-21T23:08:59.531Z,15.60
2023-09-21T23:11:47.131Z,15.60
2023-09-21T23:14:50.846Z,15.60
2023-09-21T23:17:38.835Z,15.60
2023-09-21T23:20:24.484Z,15.60
2023-09-21T23:23:10.475Z,15.60
2023-09-21T23:25:56.131Z,15.70
2023-09-21T23:28:42.034Z,15.70
2023-09-21T23:31:27.796Z,15.70
2023-09-21T23:34:14.040Z,15.70
2023-09-21T23:37:03.045Z,15.70
2023-09-21T23:39:48.663Z,15.70
2023-09-21T23:42:40.480Z,15.70
2023-09-21T23:45:26.351Z,15.60
2023-09-21T23:48:12.309Z,15.60
2023-09-21T23:50:57.961Z,15.60
2023-09-21T23:53:43.735Z,15.60
2023-09-21T23:56:30.707Z,15.60
2023-09-21T23:59:19.324Z,15.50
